Airfield :
LOGIN :

Register | Disclaimer

   EN    FR    IT 

 










Legend :    VFR   Marginal VFR   IFR   Intensive IFR   Very Intensive IFR
Visi :
Ceiling :
>= 8 km
>= 3000ft
5 to 8 km
1000 to 3000 ft
1500m to 5 km
500 to 1000 ft
800 to 1500m
200 to 500 ft
< 800m
< 200 ft
Symbols :   Thunderstorms  Fog  Heavy snow  Heavy precipitations  Wind > 20 kt
SIGMETs :     Misc.  Thunderstorms  Icing  Turbulence  Mountain Waves  Volcanic Ashes







- Airport Elevation : 622 ft
- IATA code : BRS
- Download approach charts


EGGD - Bristol Int.

CURRENT METAR :
  • 241520Z AUTO 26009KT 9999 NCD 19/15 Q1017

EXPIRED METARs :
  • 241450Z AUTO 25009KT 9999 NCD 19/16 Q1017
  • 241420Z 24008KT 9999 FEW008 19/15 Q1017
  • 241350Z 23007KT 210V280 9000 FEW013 20/16 Q1017
  • 241320Z 24007KT 9000 FEW012 20/16 Q1017
  • 241250Z 25008KT 6000 SCT010 20/16 Q1017

TAF AMD TAF EGGD
Valid from the 24 at 13:00 until the 25 at 12:00 UTC


241305Z 2413/2512 VRB03KT 6000 SCT010
BECMG 2413/2416 9999
PROB40
TEMPO 2413/2416 27010KT 4000 BR BKN009
TEMPO 2416/2421 8000
TEMPO 2421/2501 6000 RA SHRA BKN010
BECMG 2501/2504 5000 BR OVC003
TEMPO 2501/2509 3000 RA
PROB40
TEMPO 2503/2509 0300 FG OVC001
BECMG 2509/2512 BKN005
ATIS : +44 1275 473 666
No reported NOTAMs for that airfield.
1 SIGMET reported for the London FIR (EGTT) :
 
Embedded thunderstorms
EGTT SIGMET 06 VALID 241400/241700 EGRR
EGTT LONDON FIR EMBD TS FCST WI N5429 E00041 - N5357 W00159 - N5500 W00259 - N5500 E00106 - N5429 E00041 TOP FL320 MOV NE 20KT NC=



MET'MAP, your aeronautical weather chart ! - Copyright ORBIFLY December 2007 - Disclaimer

ORBIFLY MET'MAP TEAM :

Programming & Development : Alexandra Zaïnal
Concept & Development : Baudouin d'Aumeries
Co-Development & Prog : Marc-Olivier Méhu
Technical & hardware support : Manuel Goepfert

Contact : metmap@orbifly.com




SOURCES & CREDITS :

   NOAA